Time;durP1;ratioP1;P1;durP2;ratioP2;P2;SDS_P1;SDS_P2;PMS_P1;PMS_P2;Temp;Humidity;BMP_temperature;BMP_pressure;BME280_temperature;BME280_humidity;BME280_pressure;Samples;Min_cycle;Max_cycle;Signal;HPM_P1;HPM_P2
2022/11/25 00:02:26;;;;;;;2.53;0.53;;;;;;;-141.59;100.00;61776.25;5054056;28;20213;-79
2022/11/25 00:04:53;;;;;;;0.50;0.50;;;;;;;-141.59;100.00;61776.25;5050800;28;20206;-79
2022/11/25 00:07:20;;;;;;;2.10;0.73;;;;;;;-141.59;100.00;61776.25;5052395;28;20264;-79
2022/11/25 00:09:47;;;;;;;2.33;0.97;;;;;;;-141.59;100.00;61776.25;5069590;28;20198;-79
2022/11/25 00:12:14;;;;;;;0.50;0.50;;;;;;;-141.59;100.00;61776.25;5050711;28;20201;-79
2022/11/25 00:14:42;;;;;;;0.60;0.60;;;;;;;-141.59;100.00;61776.25;5053729;28;20217;-79
2022/11/25 00:17:09;;;;;;;4.90;0.80;;;;;;;-141.59;100.00;61776.25;5050672;28;20217;-79
2022/11/25 00:19:36;;;;;;;0.60;0.60;;;;;;;-141.59;100.00;61776.25;5063060;28;20202;-79
2022/11/25 00:22:04;;;;;;;2.90;0.60;;;;;;;-141.59;100.00;61776.25;5052828;28;20259;-79
2022/11/25 00:24:31;;;;;;;0.63;0.57;;;;;;;-141.59;100.00;61776.25;5054682;28;20201;-79
2022/11/25 00:26:59;;;;;;;0.53;0.50;;;;;;;-141.59;100.00;61776.25;5047033;28;20203;-79
2022/11/25 00:29:26;;;;;;;0.60;0.60;;;;;;;-141.59;100.00;61776.25;5037880;28;20221;-79
2022/11/25 00:31:54;;;;;;;0.73;0.60;;;;;;;-141.59;100.00;61776.25;5050413;28;20216;-79
2022/11/25 00:34:21;;;;;;;1.43;0.50;;;;;;;-141.59;100.00;61776.25;5043180;28;20225;-79
2022/11/25 00:36:48;;;;;;;0.70;0.70;;;;;;;-141.59;100.00;61776.25;5053279;28;20206;-79
2022/11/25 00:39:18;;;;;;;0.77;0.77;;;;;;;-141.59;100.00;61776.25;5055055;28;20217;-79
2022/11/25 00:44:45;;;;;;;0.53;0.53;;;;;;;-141.59;100.00;61776.25;4996481;28;20203;-79
2022/11/25 00:47:15;;;;;;;0.40;0.40;;;;;;;-141.59;100.00;61776.25;5026007;28;20207;-79
2022/11/25 00:49:45;;;;;;;2.97;0.60;;;;;;;-141.59;100.00;61776.25;5032655;28;20269;-79
2022/11/25 00:52:15;;;;;;;0.80;0.53;;;;;;;-141.59;100.00;61776.25;5044327;28;20281;-79
2022/11/25 00:54:44;;;;;;;0.40;0.40;;;;;;;-141.59;100.00;61776.25;5044745;28;20226;-79
2022/11/25 00:57:11;;;;;;;0.90;0.63;;;;;;;-141.59;100.00;61776.25;5054990;28;20251;-79
2022/11/25 00:59:38;;;;;;;3.03;1.07;;;;;;;-141.59;100.00;61776.25;5053275;28;20193;-80
2022/11/25 01:02:06;;;;;;;1.80;1.00;;;;;;;-141.59;100.00;61776.25;5054783;28;20205;-79
2022/11/25 01:04:35;;;;;;;2.10;0.80;;;;;;;-141.59;100.00;61776.25;5079043;28;20287;-79
2022/11/25 01:07:02;;;;;;;0.70;0.70;;;;;;;-141.59;100.00;61776.25;5068256;28;20197;-80
2022/11/25 01:09:30;;;;;;;0.97;0.87;;;;;;;-141.59;100.00;61776.25;5053467;28;20197;-79
2022/11/25 01:11:57;;;;;;;1.23;0.80;;;;;;;-141.59;100.00;61776.25;5057198;28;20198;-80
2022/11/25 01:14:25;;;;;;;1.10;0.90;;;;;;;-141.59;100.00;61776.25;5046707;28;20260;-80
2022/11/25 01:16:52;;;;;;;1.30;0.97;;;;;;;-141.59;100.00;61776.25;5042626;28;20214;-80
2022/11/25 01:19:20;;;;;;;1.47;1.00;;;;;;;-141.59;100.00;61776.25;5066702;28;20206;-79
2022/11/25 01:21:48;;;;;;;2.60;0.93;;;;;;;-141.59;100.00;61776.25;5045879;28;20201;-79
2022/11/25 01:24:18;;;;;;;0.83;0.83;;;;;;;-141.59;100.00;61776.25;5050686;28;20198;-80
2022/11/25 01:26:46;;;;;;;1.07;0.93;;;;;;;-141.59;100.00;61776.25;5051330;28;20201;-79
2022/11/25 01:29:14;;;;;;;0.80;0.80;;;;;;;-141.59;100.00;61776.25;5044885;28;20226;-79
2022/11/25 01:31:42;;;;;;;1.27;0.90;;;;;;;-141.59;100.00;61776.25;5057355;28;20199;-80
2022/11/25 01:34:14;;;;;;;1.10;1.00;;;;;;;-141.59;100.00;61776.25;5038776;28;20475;-79
2022/11/25 01:36:41;;;;;;;1.67;0.80;;;;;;;-141.59;100.00;61776.25;5053993;28;20202;-79
2022/11/25 01:39:17;;;;;;;0.87;0.70;;;;;;;-141.59;100.00;61776.25;5051077;28;20197;-79
2022/11/25 01:41:44;;;;;;;0.77;0.77;;;;;;;-141.59;100.00;61776.25;5046928;28;20213;-79
2022/11/25 01:44:14;;;;;;;0.73;0.73;;;;;;;-141.59;100.00;61776.25;5052514;28;20205;-79
2022/11/25 01:47:02;;;;;;;1.70;0.73;;;;;;;-141.59;100.00;61776.25;5055188;28;20213;-80
2022/11/25 01:49:39;;;;;;;1.07;0.90;;;;;;;-141.59;100.00;61776.25;5037877;28;20210;-79
2022/11/25 01:52:14;;;;;;;0.90;0.90;;;;;;;-141.59;100.00;61776.25;5052953;28;20216;-79
2022/11/25 01:54:49;;;;;;;1.00;0.80;;;;;;;-141.59;100.00;61776.25;5055483;28;20255;-79
2022/11/25 01:57:21;;;;;;;1.37;1.17;;;;;;;-141.59;100.00;61776.25;5065515;28;20206;-79
2022/11/25 01:59:52;;;;;;;0.90;0.90;;;;;;;-141.59;100.00;61776.25;5047165;28;20216;-80
2022/11/25 02:02:20;;;;;;;3.30;1.53;;;;;;;-141.59;100.00;61776.25;5048406;28;20198;-79
2022/11/25 02:04:49;;;;;;;1.03;0.90;;;;;;;-141.59;100.00;61776.25;5055321;28;20233;-80
2022/11/25 02:07:23;;;;;;;1.70;1.43;;;;;;;-141.59;100.00;61776.25;5055044;28;20198;-80
2022/11/25 02:09:52;;;;;;;2.17;1.67;;;;;;;-141.59;100.00;61776.25;5055045;28;20229;-80
2022/11/25 02:12:22;;;;;;;1.97;1.20;;;;;;;-141.59;100.00;61776.25;5057703;28;20210;-79
2022/11/25 02:14:51;;;;;;;1.30;1.20;;;;;;;-141.59;100.00;61776.25;5051281;28;20225;-80
2022/11/25 02:17:19;;;;;;;1.87;1.17;;;;;;;-141.59;100.00;61776.25;5059978;28;20227;-79
2022/11/25 02:20:02;;;;;;;1.20;1.10;;;;;;;-141.59;100.00;61776.25;5056282;28;20214;-79
2022/11/25 02:22:41;;;;;;;1.47;1.10;;;;;;;-141.59;100.00;61776.25;5054996;28;20205;-79
2022/11/25 02:25:15;;;;;;;1.40;1.10;;;;;;;-141.59;100.00;61776.25;5047386;28;20212;-79
2022/11/25 02:27:46;;;;;;;2.00;1.03;;;;;;;-141.59;100.00;61776.25;5072516;28;20193;-79
2022/11/25 02:30:14;;;;;;;0.80;0.80;;;;;;;-141.59;100.00;61776.25;5070993;28;20242;-79
2022/11/25 02:32:44;;;;;;;1.10;1.00;;;;;;;-141.59;100.00;61776.25;5049654;28;20206;-79
2022/11/25 02:35:30;;;;;;;1.20;1.03;;;;;;;-141.59;100.00;61776.25;5055111;28;20221;-79
2022/11/25 02:38:01;;;;;;;1.57;1.20;;;;;;;-141.59;100.00;61776.25;5055213;28;20230;-79
2022/11/25 02:40:30;;;;;;;1.43;1.10;;;;;;;-141.59;100.00;61776.25;5051476;28;20237;-79
2022/11/25 02:43:00;;;;;;;2.80;1.47;;;;;;;-141.59;100.00;61776.25;5045477;28;20288;-79
2022/11/25 02:45:36;;;;;;;1.77;1.37;;;;;;;-141.59;100.00;61776.25;5045664;28;20206;-79
2022/11/25 02:48:04;;;;;;;3.23;1.40;;;;;;;-141.59;100.00;61776.25;5074193;28;20205;-79
2022/11/25 02:50:31;;;;;;;1.17;1.07;;;;;;;-141.59;100.00;61776.25;5048619;28;20193;-79
2022/11/25 02:53:00;;;;;;;1.03;0.97;;;;;;;-141.59;100.00;61776.25;5047453;28;20212;-79
2022/11/25 02:55:27;;;;;;;0.90;0.60;;;;;;;-141.59;100.00;61776.25;5080234;28;20225;-79
2022/11/25 02:57:56;;;;;;;0.70;0.70;;;;;;;-141.59;100.00;61776.25;5050121;28;20214;-79
2022/11/25 03:00:23;;;;;;;0.70;0.70;;;;;;;-141.59;100.00;61776.25;5045980;28;20204;-79
2022/11/25 03:02:53;;;;;;;0.80;0.80;;;;;;;-141.59;100.00;61776.25;5054579;28;20201;-79
2022/11/25 03:05:21;;;;;;;0.90;0.80;;;;;;;-141.59;100.00;61776.25;5059178;28;20227;-79
2022/11/25 03:07:49;;;;;;;1.00;0.90;;;;;;;-141.59;100.00;61776.25;5056288;28;20210;-79
2022/11/25 03:10:19;;;;;;;0.87;0.83;;;;;;;-141.59;100.00;61776.25;5060950;28;20224;-79
2022/11/25 03:12:46;;;;;;;1.47;0.80;;;;;;;-141.59;100.00;61776.25;5036416;28;20217;-79
2022/11/25 03:15:16;;;;;;;2.37;1.10;;;;;;;-141.59;100.00;61776.25;5067014;28;20298;-79
2022/11/25 03:17:44;;;;;;;0.90;0.80;;;;;;;-141.59;100.00;61776.25;5042540;28;20202;-79
2022/11/25 03:20:13;;;;;;;0.70;0.70;;;;;;;-141.59;100.00;61776.25;5051663;28;20209;-79
2022/11/25 03:22:41;;;;;;;2.70;1.00;;;;;;;-141.59;100.00;61776.25;5073057;28;20295;-79
2022/11/25 03:25:10;;;;;;;0.80;0.80;;;;;;;-141.59;100.00;61776.25;5051321;28;20220;-80
2022/11/25 03:27:38;;;;;;;1.47;0.90;;;;;;;-141.59;100.00;61776.25;5060803;28;20197;-80
2022/11/25 03:30:12;;;;;;;1.07;0.97;;;;;;;-141.59;100.00;61776.25;5051392;28;20194;-80
2022/11/25 03:32:41;;;;;;;3.20;0.70;;;;;;;-141.59;100.00;61776.25;5042104;28;20206;-79
2022/11/25 03:35:09;;;;;;;2.10;0.90;;;;;;;-141.59;100.00;61776.25;5044309;28;20236;-79
2022/11/25 03:37:37;;;;;;;2.40;0.80;;;;;;;-141.59;100.00;61776.25;5051447;28;20197;-80
2022/11/25 03:40:06;;;;;;;1.40;0.90;;;;;;;-141.59;100.00;61776.25;5054537;28;20201;-79
2022/11/25 03:42:33;;;;;;;0.93;0.83;;;;;;;-141.59;100.00;61776.25;5051404;28;20220;-79
2022/11/25 03:45:01;;;;;;;4.00;0.90;;;;;;;-141.59;100.00;61776.25;5057185;28;20291;-79
2022/11/25 03:47:28;;;;;;;1.73;0.80;;;;;;;-141.59;100.00;61776.25;5058297;28;20225;-79
2022/11/25 03:49:59;;;;;;;1.17;0.80;;;;;;;-141.59;100.00;61776.25;5064858;28;20201;-79
2022/11/25 03:52:26;;;;;;;0.70;0.70;;;;;;;-141.59;100.00;61776.25;5051029;28;20203;-80
2022/11/25 03:54:54;;;;;;;0.60;0.60;;;;;;;-141.59;100.00;61776.25;5051820;28;20321;-80
2022/11/25 03:57:24;;;;;;;0.83;0.80;;;;;;;-141.59;100.00;61776.25;5053611;28;20194;-80
2022/11/25 03:59:52;;;;;;;0.70;0.70;;;;;;;-141.59;100.00;61776.25;5047468;28;20210;-79
2022/11/25 04:02:19;;;;;;;0.80;0.80;;;;;;;-141.59;100.00;61776.25;5051528;28;20210;-80
2022/11/25 04:04:47;;;;;;;1.00;0.90;;;;;;;-141.59;100.00;61776.25;5049336;28;20205;-80
2022/11/25 04:07:17;;;;;;;0.90;0.90;;;;;;;-141.59;100.00;61776.25;5044729;28;20228;-79
2022/11/25 04:09:44;;;;;;;1.17;0.93;;;;;;;-141.59;100.00;61776.25;5049051;28;20274;-79
2022/11/25 04:15:34;;;;;;;0.80;0.80;;;;;;;-141.59;100.00;61776.25;4994783;28;20254;-80
2022/11/25 04:18:02;;;;;;;2.63;0.90;;;;;;;-141.59;100.00;61776.25;4977981;28;20275;-80
2022/11/25 04:20:31;;;;;;;0.80;0.80;;;;;;;-141.59;100.00;61776.25;5029323;28;20213;-80
2022/11/25 04:23:06;;;;;;;1.43;1.00;;;;;;;-141.59;100.00;61776.25;5054729;28;20220;-79
2022/11/25 04:25:36;;;;;;;0.77;0.70;;;;;;;-141.59;100.00;61776.25;5049753;28;20202;-82
2022/11/25 04:28:10;;;;;;;0.90;0.90;;;;;;;-141.59;100.00;61776.25;5052439;28;20288;-82
2022/11/25 04:30:38;;;;;;;0.63;0.63;;;;;;;-141.59;100.00;61776.25;5070573;28;20199;-81
2022/11/25 04:33:08;;;;;;;0.70;0.70;;;;;;;-141.59;100.00;61776.25;5057149;28;20221;-81
2022/11/25 04:35:35;;;;;;;1.20;0.90;;;;;;;-141.59;100.00;61776.25;5051331;28;20290;-81
2022/11/25 04:38:04;;;;;;;0.67;0.67;;;;;;;-141.59;100.00;61776.25;5044945;28;20209;-81
2022/11/25 04:40:35;;;;;;;2.23;1.00;;;;;;;-141.59;100.00;61776.25;5052846;28;20209;-81
2022/11/25 04:43:13;;;;;;;1.30;1.20;;;;;;;-141.59;100.00;61776.25;5051309;28;20213;-81
2022/11/25 04:45:47;;;;;;;1.17;0.90;;;;;;;-141.59;100.00;61776.25;5050598;28;20197;-81
2022/11/25 04:48:14;;;;;;;0.83;0.80;;;;;;;-141.59;100.00;61776.25;5051575;28;20271;-81
2022/11/25 04:50:43;;;;;;;0.70;0.70;;;;;;;-141.59;100.00;61776.25;5050298;28;20224;-82
2022/11/25 04:53:14;;;;;;;1.83;0.90;;;;;;;-141.59;100.00;61776.25;5051429;28;20258;-81
2022/11/25 04:55:42;;;;;;;1.17;0.80;;;;;;;-141.59;100.00;61776.25;5046340;28;20240;-79
2022/11/25 04:59:38;;;;;;;0.70;0.70;;;;;;;-141.59;100.00;61776.25;5052040;28;20292;-80
2022/11/25 05:01:02;;;;;;;0.80;0.80;;;;;;;-141.59;100.00;61776.25;5040039;28;20205;-80
2022/11/25 05:03:29;;;;;;;2.47;0.80;;;;;;;-141.59;100.00;61776.25;5041292;28;20292;-80
2022/11/25 05:05:57;;;;;;;10.00;3.20;;;;;;;-141.59;100.00;61776.25;5060841;28;20297;-79
2022/11/25 05:08:26;;;;;;;1.70;1.10;;;;;;;-141.59;100.00;61776.25;5046767;28;20267;-79
2022/11/25 05:10:53;;;;;;;0.60;0.60;;;;;;;-141.59;100.00;61776.25;5053280;28;20236;-80
2022/11/25 05:13:20;;;;;;;0.60;0.60;;;;;;;-141.59;100.00;61776.25;5057055;28;20208;-79
2022/11/25 05:15:47;;;;;;;1.17;1.03;;;;;;;-141.59;100.00;61776.25;5052476;28;20270;-79
2022/11/25 05:18:16;;;;;;;1.10;1.00;;;;;;;-141.59;100.00;61776.25;5048954;28;20281;-80
2022/11/25 05:20:46;;;;;;;1.80;0.80;;;;;;;-141.59;100.00;61776.25;5049101;28;20293;-80
2022/11/25 05:23:16;;;;;;;0.63;0.63;;;;;;;-141.59;100.00;61776.25;5050836;28;20197;-79
2022/11/25 05:25:44;;;;;;;1.23;0.60;;;;;;;-141.59;100.00;61776.25;5048285;28;20230;-80
2022/11/25 05:28:26;;;;;;;1.27;0.70;;;;;;;-141.59;100.00;61776.25;5058001;28;20193;-80
2022/11/25 05:30:53;;;;;;;2.97;1.97;;;;;;;-141.59;100.00;61776.25;5051059;28;20205;-80
2022/11/25 05:33:21;;;;;;;2.07;1.60;;;;;;;-141.59;100.00;61776.25;5060215;28;20197;-80
2022/11/25 05:35:55;;;;;;;3.30;1.60;;;;;;;-141.59;100.00;61776.25;5077002;28;20295;-79
2022/11/25 05:38:23;;;;;;;2.60;0.90;;;;;;;-141.59;100.00;61776.25;5063033;28;20262;-79
2022/11/25 05:40:52;;;;;;;1.30;0.93;;;;;;;-141.59;100.00;61776.25;5051807;28;20243;-80
2022/11/25 05:43:19;;;;;;;2.00;0.87;;;;;;;-141.59;100.00;61776.25;5045720;28;20217;-80
2022/11/25 05:45:46;;;;;;;1.57;1.30;;;;;;;-141.59;100.00;61776.25;5051302;28;20208;-80
2022/11/25 05:48:14;;;;;;;2.23;1.30;;;;;;;-141.59;100.00;61776.25;5042369;28;20212;-80
2022/11/25 05:50:42;;;;;;;2.47;1.50;;;;;;;-141.59;100.00;61776.25;5048116;28;20235;-82
2022/11/25 05:53:17;;;;;;;3.00;1.93;;;;;;;-141.59;100.00;61776.25;5047701;28;20217;-82
2022/11/25 05:55:53;;;;;;;2.73;1.90;;;;;;;-141.59;100.00;61776.25;5070713;28;20262;-82
2022/11/25 05:58:31;;;;;;;2.27;1.80;;;;;;;-141.59;100.00;61776.25;5056919;28;20290;-82
2022/11/25 06:01:00;;;;;;;1.90;1.40;;;;;;;-141.59;100.00;61776.25;5071135;28;20196;-82
2022/11/25 06:03:30;;;;;;;1.53;1.40;;;;;;;-141.59;100.00;61776.25;5048927;28;20209;-82
2022/11/25 06:05:57;;;;;;;2.47;1.50;;;;;;;-141.59;100.00;61776.25;5043886;28;20290;-82
2022/11/25 06:08:24;;;;;;;2.40;1.10;;;;;;;-141.59;100.00;61776.25;5044875;28;20256;-82
2022/11/25 06:10:52;;;;;;;2.60;1.77;;;;;;;-141.59;100.00;61776.25;5066107;28;20253;-82
2022/11/25 06:13:19;;;;;;;3.77;1.40;;;;;;;-141.59;100.00;61776.25;5057623;28;20193;-82
2022/11/25 06:15:49;;;;;;;2.47;1.70;;;;;;;-141.59;100.00;61776.25;5050950;28;20240;-82
2022/11/25 06:18:18;;;;;;;2.90;1.70;;;;;;;-141.59;100.00;61776.25;5050034;28;20268;-82
2022/11/25 06:20:46;;;;;;;4.53;1.13;;;;;;;-141.59;100.00;61776.25;5048114;28;20201;-82
2022/11/25 06:23:13;;;;;;;2.00;1.37;;;;;;;-141.59;100.00;61776.25;5063718;28;20220;-82
2022/11/25 06:25:40;;;;;;;1.97;1.50;;;;;;;-141.59;100.00;61776.25;5056458;28;20288;-82
2022/11/25 06:28:08;;;;;;;2.77;2.03;;;;;;;-141.59;100.00;61776.25;5040485;28;20198;-82
2022/11/25 06:30:35;;;;;;;3.00;2.27;;;;;;;-141.59;100.00;61776.25;5051787;28;20201;-82
2022/11/25 06:33:19;;;;;;;2.97;2.00;;;;;;;-141.59;100.00;61776.25;5044685;28;20266;-82
2022/11/25 06:35:48;;;;;;;3.77;2.30;;;;;;;-141.59;100.00;61776.25;5040567;28;20225;-82
2022/11/25 06:38:15;;;;;;;3.03;2.10;;;;;;;-141.59;100.00;61776.25;5056895;28;20217;-82
2022/11/25 06:40:42;;;;;;;6.13;3.33;;;;;;;-141.59;100.00;61776.25;5053109;28;20202;-82
2022/11/25 06:43:09;;;;;;;2.03;1.80;;;;;;;-141.59;100.00;61776.25;5054764;28;20243;-81
2022/11/25 06:45:36;;;;;;;1.70;1.50;;;;;;;-141.59;100.00;61776.25;5046929;28;20216;-80
2022/11/25 06:48:06;;;;;;;5.23;3.47;;;;;;;-141.59;100.00;61776.25;5038972;28;20232;-80
2022/11/25 06:50:34;;;;;;;10.40;4.00;;;;;;;-141.59;100.00;61776.25;5046586;28;20202;-80
2022/11/25 06:53:02;;;;;;;7.30;3.43;;;;;;;-141.59;100.00;61776.25;5064196;28;20202;-80
2022/11/25 06:55:29;;;;;;;3.30;1.90;;;;;;;-141.59;100.00;61776.25;5043321;28;20273;-80
2022/11/25 06:57:58;;;;;;;2.00;1.50;;;;;;;-141.59;100.00;61776.25;5039979;28;20226;-79
2022/11/25 07:00:25;;;;;;;1.77;1.67;;;;;;;-141.59;100.00;61776.25;5044945;28;20210;-80
2022/11/25 07:02:52;;;;;;;2.97;1.87;;;;;;;-141.59;100.00;61776.25;5032295;28;20207;-80
2022/11/25 07:05:20;;;;;;;3.13;2.10;;;;;;;-141.59;100.00;61776.25;5043802;28;20199;-80
2022/11/25 07:07:48;;;;;;;4.53;2.30;;;;;;;-141.59;100.00;61776.25;5046867;28;20335;-80
2022/11/25 07:10:16;;;;;;;2.67;2.00;;;;;;;-141.59;100.00;61776.25;5043270;28;20237;-80
2022/11/25 07:12:43;;;;;;;3.13;2.20;;;;;;;-141.59;100.00;61776.25;5043832;28;20206;-80
2022/11/25 07:15:13;;;;;;;6.23;3.97;;;;;;;-141.59;100.00;61776.25;5044755;28;20264;-80
2022/11/25 07:17:41;;;;;;;3.90;1.50;;;;;;;-141.59;100.00;61776.25;5039399;28;20230;-80
2022/11/25 07:20:09;;;;;;;6.20;2.87;;;;;;;-141.59;100.00;61776.25;5049946;28;20232;-80
2022/11/25 07:22:36;;;;;;;6.03;2.80;;;;;;;-141.59;100.00;61776.25;5050272;28;20202;-80
2022/11/25 07:25:08;;;;;;;5.93;4.37;;;;;;;-141.59;100.00;61776.25;5049451;28;20229;-79
2022/11/25 07:27:35;;;;;;;6.77;3.70;;;;;;;-141.59;100.00;61776.25;5047097;28;20202;-80
2022/11/25 07:30:03;;;;;;;3.70;2.50;;;;;;;-141.59;100.00;61776.25;5037288;28;20203;-80
2022/11/25 07:32:33;;;;;;;3.60;2.03;;;;;;;-141.59;100.00;61776.25;5039282;28;20253;-80
2022/11/25 07:35:00;;;;;;;4.00;2.43;;;;;;;-141.59;100.00;61776.25;5040503;28;20210;-80
2022/11/25 07:37:27;;;;;;;2.50;2.10;;;;;;;-141.59;100.00;61776.25;5032590;28;20195;-80
2022/11/25 07:39:54;;;;;;;3.03;2.00;;;;;;;-141.59;100.00;61776.25;5039286;28;20210;-80
2022/11/25 07:42:24;;;;;;;2.80;2.20;;;;;;;-141.59;100.00;61776.25;5038080;28;20222;-80
2022/11/25 07:44:51;;;;;;;3.10;2.43;;;;;;;-141.59;100.00;61776.25;5045643;28;20206;-78
2022/11/25 07:47:40;;;;;;;3.53;2.20;;;;;;;-141.59;100.00;61776.25;5037165;28;20214;-78
2022/11/25 07:50:09;;;;;;;2.50;2.10;;;;;;;-141.59;100.00;61776.25;5035719;28;20209;-78
2022/11/25 07:52:38;;;;;;;2.43;1.90;;;;;;;-141.59;100.00;61776.25;5035149;28;20221;-79
2022/11/25 07:55:09;;;;;;;2.47;1.90;;;;;;;-141.59;100.00;61776.25;5044083;28;20230;-78
2022/11/25 07:57:38;;;;;;;2.47;1.80;;;;;;;-141.59;100.00;61776.25;5059779;28;20285;-78
2022/11/25 08:00:09;;;;;;;2.87;1.80;;;;;;;-141.59;100.00;61776.25;5053197;28;20209;-78
2022/11/25 08:02:39;;;;;;;2.20;1.80;;;;;;;-141.59;100.00;61776.25;5061347;28;20212;-79
2022/11/25 08:05:10;;;;;;;2.33;1.80;;;;;;;-141.59;100.00;61776.25;5039042;28;20296;-79
2022/11/25 08:07:37;;;;;;;4.17;2.90;;;;;;;-141.59;100.00;61776.25;5034067;28;20195;-78
2022/11/25 08:10:05;;;;;;;5.83;3.70;;;;;;;-141.59;100.00;61776.25;5048505;28;20222;-78
2022/11/25 08:12:33;;;;;;;8.23;4.33;;;;;;;-141.59;100.00;61776.25;5041749;28;20209;-79
2022/11/25 08:15:02;;;;;;;3.57;2.93;;;;;;;-141.59;100.00;61776.25;5049300;28;20206;-77
2022/11/25 08:17:29;;;;;;;7.00;3.70;;;;;;;-141.59;100.00;61776.25;5044804;28;20212;-78
2022/11/25 08:19:56;;;;;;;5.63;3.10;;;;;;;-141.59;100.00;61776.25;5066544;28;20276;-77
2022/11/25 08:22:23;;;;;;;5.00;3.53;;;;;;;-141.59;100.00;61776.25;5041325;28;20212;-77
2022/11/25 08:24:50;;;;;;;4.90;3.23;;;;;;;-141.59;100.00;61776.25;5039813;28;20206;-77
2022/11/25 08:27:17;;;;;;;4.60;3.23;;;;;;;-141.59;100.00;61776.25;5050250;28;20205;-79
2022/11/25 08:29:44;;;;;;;5.50;3.57;;;;;;;-141.59;100.00;61776.25;5050650;28;20314;-78
2022/11/25 08:32:13;;;;;;;5.40;3.60;;;;;;;-141.59;100.00;61776.25;5062605;28;20284;-77
2022/11/25 08:34:40;;;;;;;4.73;2.83;;;;;;;-141.59;100.00;61776.25;5050543;28;20206;-79
2022/11/25 08:37:09;;;;;;;3.60;2.73;;;;;;;-141.59;100.00;61776.25;5045389;28;20209;-79
2022/11/25 08:39:36;;;;;;;4.47;2.77;;;;;;;-141.59;100.00;61776.25;5042127;28;20214;-78
2022/11/25 08:42:07;;;;;;;3.27;2.43;;;;;;;-141.59;100.00;61776.25;5047153;28;20198;-78
2022/11/25 08:44:35;;;;;;;3.60;2.37;;;;;;;-141.59;100.00;61776.25;5049821;28;20202;-78
2022/11/25 08:47:02;;;;;;;3.27;2.63;;;;;;;-141.59;100.00;61776.25;5052490;28;20261;-78
2022/11/25 08:49:31;;;;;;;2.70;2.23;;;;;;;-141.59;100.00;61776.25;5054621;28;20210;-79
2022/11/25 08:51:58;;;;;;;3.20;2.20;;;;;;;-141.59;100.00;61776.25;5039349;28;20284;-78
2022/11/25 08:54:25;;;;;;;2.90;1.90;;;;;;;-141.59;100.00;61776.25;5055990;28;20340;-78
2022/11/25 08:56:52;;;;;;;2.50;1.90;;;;;;;-141.59;100.00;61776.25;5029040;28;20238;-78
2022/11/25 08:59:21;;;;;;;2.70;1.90;;;;;;;-141.59;100.00;61776.25;5047861;28;20209;-78
2022/11/25 09:01:48;;;;;;;5.13;2.60;;;;;;;-141.59;100.00;61776.25;5048275;28;20299;-78
2022/11/25 09:04:15;;;;;;;5.20;2.97;;;;;;;-141.59;100.00;61776.25;5044747;28;20206;-78
2022/11/25 09:06:44;;;;;;;2.97;2.37;;;;;;;-141.59;100.00;61776.25;5046833;28;20213;-78
2022/11/25 09:09:11;;;;;;;9.47;3.00;;;;;;;-141.59;100.00;61776.25;5045238;28;20210;-78
2022/11/25 09:11:38;;;;;;;4.27;2.80;;;;;;;-141.59;100.00;61776.25;5048607;28;20234;-78
2022/11/25 09:14:08;;;;;;;5.50;3.37;;;;;;;-141.59;100.00;61776.25;5054398;28;20218;-78
2022/11/25 09:16:35;;;;;;;6.03;3.50;;;;;;;-141.59;100.00;61776.25;5055060;28;20221;-78
2022/11/25 09:19:03;;;;;;;4.63;2.97;;;;;;;-141.59;100.00;61776.25;5041810;28;20206;-78
2022/11/25 09:21:30;;;;;;;7.10;3.30;;;;;;;-141.59;100.00;61776.25;5032832;28;20277;-78
2022/11/25 09:23:58;;;;;;;5.50;2.90;;;;;;;-141.59;100.00;61776.25;5044498;28;20229;-78
2022/11/25 09:26:27;;;;;;;6.03;3.20;;;;;;;-141.59;100.00;61776.25;5046762;28;20201;-78
2022/11/25 09:28:55;;;;;;;4.50;3.00;;;;;;;-141.59;100.00;61776.25;5036046;28;20316;-78
2022/11/25 09:31:24;;;;;;;3.70;2.60;;;;;;;-141.59;100.00;61776.25;5047178;28;20206;-78
2022/11/25 09:33:51;;;;;;;2.77;1.70;;;;;;;-141.59;100.00;61776.25;5047073;28;20209;-78
2022/11/25 09:36:19;;;;;;;2.80;1.53;;;;;;;-141.59;100.00;61776.25;5040996;28;20221;-77
2022/11/25 09:38:47;;;;;;;2.10;1.53;;;;;;;-141.59;100.00;61776.25;5037003;28;20195;-78
2022/11/25 09:47:20;;;;;;;2.33;1.60;;;;;;;-141.59;100.00;61776.25;5053410;28;20206;-78
2022/11/25 09:50:02;;;;;;;3.63;1.83;;;;;;;-141.59;100.00;61776.25;5040746;28;20198;-78
2022/11/25 09:52:37;;;;;;;2.17;1.67;;;;;;;-141.59;100.00;61776.25;5064082;28;20201;-78
2022/11/25 09:55:09;;;;;;;3.70;1.83;;;;;;;-141.59;100.00;61776.25;5043612;28;20396;-78
2022/11/25 09:57:53;;;;;;;5.53;2.20;;;;;;;-141.59;100.00;61776.25;5047708;28;20229;-78
2022/11/25 10:00:22;;;;;;;9.50;5.77;;;;;;;-141.59;100.00;61776.25;5052303;28;20223;-78
2022/11/25 10:03:01;;;;;;;9.03;6.07;;;;;;;-141.59;100.00;61776.25;5046093;28;20255;-78
2022/11/25 10:05:34;;;;;;;11.50;7.50;;;;;;;-141.59;100.00;61776.25;5042851;28;20233;-78
2022/11/25 10:08:07;;;;;;;9.03;6.20;;;;;;;-141.59;100.00;61776.25;5051055;28;20201;-77
2022/11/25 10:10:42;;;;;;;9.47;6.47;;;;;;;-141.59;100.00;61776.25;5068343;28;20229;-78
2022/11/25 10:13:17;;;;;;;8.70;5.67;;;;;;;-141.59;100.00;61776.25;5070654;28;20201;-78
2022/11/25 10:15:48;;;;;;;4.73;2.70;;;;;;;-141.59;100.00;61776.25;5043746;28;20243;-78
2022/11/25 10:18:21;;;;;;;6.27;2.80;;;;;;;-141.59;100.00;61776.25;5053695;28;20201;-78
2022/11/25 10:20:50;;;;;;;5.00;2.30;;;;;;;-141.59;100.00;61776.25;5054241;28;20205;-78
2022/11/25 10:23:22;;;;;;;3.43;2.20;;;;;;;-141.59;100.00;61776.25;5052763;28;20212;-79
2022/11/25 10:25:55;;;;;;;7.87;2.47;;;;;;;-141.59;100.00;61776.25;5041355;28;20275;-78
2022/11/25 10:28:25;;;;;;;3.80;3.00;;;;;;;-141.59;100.00;61776.25;5053388;28;20214;-78
2022/11/25 10:31:00;;;;;;;7.93;3.43;;;;;;;-141.59;100.00;61776.25;5044417;28;20301;-79
2022/11/25 10:33:30;;;;;;;5.67;3.27;;;;;;;-141.59;100.00;61776.25;5052561;28;20205;-78
2022/11/25 10:36:00;;;;;;;5.80;2.50;;;;;;;-141.59;100.00;61776.25;5047968;28;20236;-79
2022/11/25 10:38:35;;;;;;;4.60;2.93;;;;;;;-141.59;100.00;61776.25;5062889;28;20216;-78
2022/11/25 10:41:04;;;;;;;4.47;2.70;;;;;;;-141.59;100.00;61776.25;5063543;28;20212;-78
2022/11/25 10:43:33;;;;;;;2.60;1.90;;;;;;;-141.59;100.00;61776.25;5059453;28;20229;-79
2022/11/25 10:46:11;;;;;;;3.57;2.20;;;;;;;-141.59;100.00;61776.25;5075828;28;20255;-78
2022/11/25 10:48:53;;;;;;;4.33;2.10;;;;;;;-141.59;100.00;61776.25;5048096;28;20279;-78
2022/11/25 10:51:37;;;;;;;2.83;2.13;;;;;;;-141.59;100.00;61776.25;5061383;28;20280;-78
2022/11/25 10:54:14;;;;;;;5.67;2.37;;;;;;;-141.59;100.00;61776.25;5045935;28;20198;-78
2022/11/25 10:56:48;;;;;;;11.30;9.40;;;;;;;-141.59;100.00;61776.25;5044174;28;20226;-78
2022/11/25 10:59:24;;;;;;;5.10;3.27;;;;;;;-141.59;100.00;61776.25;5045483;28;20276;-79
2022/11/25 11:01:53;;;;;;;5.60;5.10;;;;;;;-141.59;100.00;61776.25;5048157;28;20236;-78
2022/11/25 11:04:20;;;;;;;4.77;3.50;;;;;;;-141.59;100.00;61776.25;5042961;28;20194;-79
2022/11/25 11:06:50;;;;;;;4.73;2.13;;;;;;;-141.59;100.00;61776.25;5047589;28;20217;-78
2022/11/25 11:09:35;;;;;;;4.30;2.10;;;;;;;-141.59;100.00;61776.25;5045185;28;20211;-78
2022/11/25 11:12:18;;;;;;;3.70;1.67;;;;;;;-141.59;100.00;61776.25;5037217;28;20251;-79
2022/11/25 11:14:46;;;;;;;2.90;2.17;;;;;;;-141.59;100.00;61776.25;5037384;28;20210;-79
2022/11/25 11:17:32;;;;;;;3.33;2.17;;;;;;;-141.59;100.00;61776.25;5043838;28;20232;-78
2022/11/25 11:20:14;;;;;;;3.20;2.10;;;;;;;-141.59;100.00;61776.25;5055741;28;20236;-78
2022/11/25 11:22:48;;;;;;;3.30;2.00;;;;;;;-141.59;100.00;61776.25;5047148;28;20209;-78
2022/11/25 11:25:28;;;;;;;2.13;1.40;;;;;;;-141.59;100.00;61776.25;5051216;28;20201;-78
2022/11/25 11:27:56;;;;;;;2.40;1.50;;;;;;;-141.59;100.00;61776.25;5044648;28;20281;-80
2022/11/25 11:30:26;;;;;;;2.00;1.80;;;;;;;-141.59;100.00;61776.25;5047123;28;20202;-80
2022/11/25 11:33:00;;;;;;;2.20;1.70;;;;;;;-141.59;100.00;61776.25;5044672;28;20242;-78
2022/11/25 11:35:38;;;;;;;4.83;2.20;;;;;;;-141.59;100.00;61776.25;5049813;28;20293;-78